createdAt,value
2018-09-26T00:01:17.965Z,77.50
2018-09-26T00:03:24.198Z,77.90
2018-09-26T00:05:26.361Z,77.50
2018-09-26T00:07:28.489Z,77.50
2018-09-26T00:09:30.595Z,77.30
2018-09-26T00:11:32.846Z,77.10
2018-09-26T00:13:34.964Z,76.90
2018-09-26T00:15:37.093Z,77.40
2018-09-26T00:17:39.244Z,77.30
2018-09-26T00:19:41.449Z,76.90
2018-09-26T00:21:43.570Z,77.40
2018-09-26T00:23:45.721Z,77.30
2018-09-26T00:25:47.867Z,77.40
2018-09-26T00:27:50.067Z,76.50
2018-09-26T00:29:52.200Z,77.30
2018-09-26T00:31:54.339Z,78.70
2018-09-26T00:33:56.595Z,78.50
2018-09-26T00:35:58.911Z,77.40
2018-09-26T00:38:00.986Z,78.10
2018-09-26T00:40:03.345Z,77.70
2018-09-26T00:42:05.529Z,78.10
2018-09-26T00:44:07.673Z,78.10
2018-09-26T00:46:10.465Z,78.70
2018-09-26T00:48:12.605Z,80.50
2018-09-26T00:50:14.837Z,80.30
2018-09-26T00:52:16.963Z,81.20
2018-09-26T00:54:19.134Z,80.70
2018-09-26T00:56:21.229Z,79.80
2018-09-26T00:58:23.406Z,77.50
2018-09-26T01:00:25.627Z,77.80
2018-09-26T01:02:27.881Z,77.50
2018-09-26T01:04:30.081Z,77.90
2018-09-26T01:06:32.205Z,77.50
2018-09-26T01:08:34.426Z,77.50
2018-09-26T01:10:36.625Z,77.50
2018-09-26T01:12:38.874Z,77.50
2018-09-26T01:14:41.145Z,77.30
2018-09-26T01:16:43.306Z,77.40
2018-09-26T01:18:45.461Z,77.80
2018-09-26T01:20:48.688Z,77.50
2018-09-26T01:22:50.905Z,77.50
2018-09-26T01:24:53.066Z,77.50
2018-09-26T01:26:55.308Z,76.30
2018-09-26T01:28:57.461Z,75.70
2018-09-26T01:30:59.581Z,75.90
2018-09-26T01:33:01.898Z,75.00
2018-09-26T01:35:04.214Z,76.40
2018-09-26T01:37:06.409Z,75.60
2018-09-26T01:39:09.174Z,75.40
2018-09-26T01:41:11.311Z,75.80
2018-09-26T01:43:13.524Z,75.30
2018-09-26T01:45:15.663Z,74.40
2018-09-26T01:47:17.809Z,75.00
2018-09-26T01:49:19.982Z,72.90
2018-09-26T01:51:22.142Z,74.00
2018-09-26T01:53:24.347Z,73.70
2018-09-26T01:55:26.521Z,74.90
2018-09-26T01:57:28.638Z,73.10
2018-09-26T01:59:30.841Z,73.00
2018-09-26T02:01:33.103Z,74.00
2018-09-26T02:03:35.391Z,74.00
2018-09-26T02:05:37.583Z,74.10
2018-09-26T02:07:39.801Z,73.20
2018-09-26T02:09:42.023Z,73.80
2018-09-26T02:11:44.206Z,75.50
2018-09-26T02:13:46.390Z,75.70
2018-09-26T02:15:48.562Z,77.00
2018-09-26T02:17:50.739Z,77.20
2018-09-26T02:19:52.987Z,77.50
2018-09-26T02:21:55.149Z,77.50
2018-09-26T02:23:57.319Z,76.20
2018-09-26T02:25:59.545Z,76.10
2018-09-26T02:28:01.710Z,76.00
2018-09-26T02:30:03.843Z,76.10
2018-09-26T02:32:05.999Z,75.30
2018-09-26T02:34:08.157Z,74.90
2018-09-26T02:36:10.303Z,74.90
2018-09-26T02:38:12.472Z,74.30
2018-09-26T02:40:14.608Z,72.70
2018-09-26T02:42:16.764Z,72.90
2018-09-26T02:44:18.900Z,73.00
2018-09-26T02:46:21.053Z,74.30
2018-09-26T02:48:28.765Z,77.00
2018-09-26T02:50:30.885Z,77.50
2018-09-26T02:52:32.978Z,76.20
2018-09-26T02:54:35.153Z,76.30
2018-09-26T02:56:37.302Z,73.50
2018-09-26T02:58:39.417Z,75.00
2018-09-26T03:00:41.539Z,73.50
2018-09-26T03:02:43.697Z,74.70
2018-09-26T03:04:45.812Z,75.20
2018-09-26T03:06:47.954Z,76.10
2018-09-26T03:08:50.117Z,77.80
2018-09-26T03:10:52.326Z,75.90
2018-09-26T03:12:54.427Z,73.30
2018-09-26T03:14:56.594Z,73.00
2018-09-26T03:16:58.755Z,72.10
2018-09-26T03:19:01.004Z,72.30
2018-09-26T03:21:03.156Z,72.40
2018-09-26T03:23:05.313Z,71.80
2018-09-26T03:25:07.455Z,71.10
2018-09-26T03:27:09.593Z,71.00
2018-09-26T03:29:11.704Z,71.00
2018-09-26T03:31:13.850Z,71.00
2018-09-26T03:33:16.037Z,71.60
2018-09-26T03:35:18.241Z,71.90
2018-09-26T03:37:20.410Z,73.00
2018-09-26T03:39:22.582Z,73.20
2018-09-26T03:41:24.722Z,72.80
2018-09-26T03:43:26.853Z,72.70
2018-09-26T03:45:28.985Z,72.20
2018-09-26T03:47:31.138Z,72.90
2018-09-26T03:49:33.298Z,73.90
2018-09-26T03:51:35.477Z,73.40
2018-09-26T03:53:37.592Z,72.60
2018-09-26T03:55:39.747Z,72.40
2018-09-26T03:57:41.837Z,72.10
2018-09-26T03:59:43.954Z,72.20
2018-09-26T04:01:46.114Z,72.20
2018-09-26T04:03:48.254Z,71.60
2018-09-26T04:05:50.378Z,71.10
2018-09-26T04:07:52.512Z,70.40
2018-09-26T04:09:54.612Z,68.60
2018-09-26T04:11:56.742Z,68.50
2018-09-26T04:13:58.849Z,69.40
2018-09-26T04:16:00.973Z,69.70
2018-09-26T04:18:03.231Z,68.80
2018-09-26T04:20:05.438Z,69.40
2018-09-26T04:22:07.606Z,68.50
2018-09-26T04:24:09.776Z,68.60
2018-09-26T04:26:12.061Z,68.50
2018-09-26T04:28:14.094Z,69.40
2018-09-26T04:30:16.221Z,69.40
2018-09-26T04:32:18.427Z,68.90
2018-09-26T04:34:20.596Z,68.00
2018-09-26T04:36:22.714Z,68.80
2018-09-26T04:38:24.865Z,69.10
2018-09-26T04:40:26.989Z,69.10
2018-09-26T04:42:29.134Z,69.20
2018-09-26T04:44:31.251Z,69.80
2018-09-26T04:46:33.473Z,70.20
2018-09-26T04:48:35.569Z,71.20
2018-09-26T04:50:37.742Z,71.00
2018-09-26T04:52:39.831Z,71.30
2018-09-26T04:54:42.036Z,71.20
2018-09-26T04:56:44.149Z,71.90
2018-09-26T04:58:46.554Z,71.90
2018-09-26T05:00:48.789Z,71.00
2018-09-26T05:02:50.947Z,71.60
2018-09-26T05:04:53.356Z,72.30
2018-09-26T05:06:55.467Z,74.70
2018-09-26T05:08:57.677Z,73.20
2018-09-26T05:10:59.895Z,75.20
2018-09-26T05:13:02.035Z,72.00
2018-09-26T05:15:04.230Z,71.00
2018-09-26T05:17:06.328Z,72.60
2018-09-26T05:19:08.612Z,72.00
2018-09-26T05:21:10.733Z,72.00
2018-09-26T05:23:13.118Z,73.30
2018-09-26T05:25:15.290Z,75.30
2018-09-26T05:27:17.469Z,77.60
2018-09-26T05:29:19.612Z,77.20
2018-09-26T05:31:21.738Z,74.30
2018-09-26T05:33:23.882Z,73.80
2018-09-26T05:35:25.985Z,74.00
2018-09-26T05:37:28.155Z,75.30
2018-09-26T05:39:30.293Z,73.10
2018-09-26T05:41:32.594Z,72.40
2018-09-26T05:43:34.742Z,73.80
2018-09-26T05:45:36.918Z,73.60
2018-09-26T05:47:43.153Z,73.20
2018-09-26T05:49:45.330Z,73.50
2018-09-26T05:51:47.485Z,74.90
2018-09-26T05:53:49.657Z,73.00
2018-09-26T05:55:51.819Z,74.00
2018-09-26T05:57:53.997Z,74.10
2018-09-26T05:59:56.169Z,73.20
2018-09-26T06:01:58.377Z,74.60
2018-09-26T06:04:00.523Z,73.60
2018-09-26T06:06:02.681Z,70.00
2018-09-26T06:08:04.874Z,69.90
2018-09-26T06:10:07.349Z,70.30
2018-09-26T06:12:09.646Z,67.80
2018-09-26T06:14:12.388Z,67.40
2018-09-26T06:16:14.533Z,65.40
2018-09-26T06:18:16.738Z,63.10
2018-09-26T06:20:18.870Z,62.70
2018-09-26T06:22:21.122Z,63.80
2018-09-26T06:24:23.326Z,62.20
2018-09-26T06:26:25.549Z,63.30
2018-09-26T06:28:27.737Z,61.40
2018-09-26T06:30:29.968Z,61.10
2018-09-26T06:32:32.193Z,58.60
2018-09-26T06:34:34.400Z,60.40
2018-09-26T06:36:36.573Z,60.00
2018-09-26T06:38:38.781Z,58.70
2018-09-26T06:40:40.934Z,58.80
2018-09-26T06:42:43.154Z,60.10
2018-09-26T06:44:45.410Z,58.00
2018-09-26T06:46:47.636Z,59.80
2018-09-26T06:48:49.862Z,58.50
2018-09-26T06:50:52.081Z,60.70
2018-09-26T06:52:54.307Z,56.30
2018-09-26T06:54:56.536Z,55.60
2018-09-26T06:56:58.895Z,56.10
2018-09-26T06:59:01.018Z,58.00
2018-09-26T07:01:03.186Z,59.10
2018-09-26T07:03:05.377Z,53.30
2018-09-26T07:05:07.563Z,51.70
2018-09-26T07:07:09.723Z,53.40
2018-09-26T07:09:11.907Z,54.50
2018-09-26T07:11:14.049Z,53.70
2018-09-26T07:13:16.250Z,53.50
2018-09-26T07:15:18.394Z,52.10
2018-09-26T07:17:20.521Z,51.80
2018-09-26T07:19:22.665Z,55.70
2018-09-26T07:21:24.834Z,53.40
2018-09-26T07:23:26.971Z,56.70
2018-09-26T07:25:29.115Z,56.00
2018-09-26T07:27:31.266Z,53.80
2018-09-26T07:29:33.414Z,49.20
2018-09-26T07:31:35.697Z,48.60
2018-09-26T07:33:37.846Z,51.10
2018-09-26T07:35:40.025Z,47.60
2018-09-26T07:37:42.163Z,50.50
2018-09-26T07:39:44.341Z,48.40
2018-09-26T07:41:46.477Z,52.30
2018-09-26T07:43:48.641Z,53.30
2018-09-26T07:45:50.844Z,47.20
2018-09-26T07:47:52.982Z,50.90
2018-09-26T07:49:55.138Z,49.50
2018-09-26T07:51:57.300Z,51.80
2018-09-26T07:53:59.513Z,56.30
2018-09-26T07:56:01.601Z,53.50
2018-09-26T07:58:03.879Z,44.90
2018-09-26T08:00:06.442Z,44.20
2018-09-26T08:02:08.492Z,37.00
2018-09-26T08:04:10.597Z,41.50
2018-09-26T08:06:12.768Z,38.20
2018-09-26T08:08:15.091Z,38.60
2018-09-26T08:10:17.193Z,30.60
2018-09-26T08:12:19.385Z,26.40
2018-09-26T08:14:21.522Z,28.60
2018-09-26T08:16:23.635Z,29.40
2018-09-26T08:18:25.810Z,31.00
2018-09-26T08:20:28.014Z,30.30
2018-09-26T08:22:30.170Z,25.80
2018-09-26T08:24:32.345Z,23.60
2018-09-26T08:26:34.524Z,23.40
2018-09-26T08:28:36.708Z,23.10
2018-09-26T08:30:38.838Z,20.30
2018-09-26T08:32:41.289Z,21.50
2018-09-26T08:34:43.415Z,22.20
2018-09-26T08:36:45.609Z,20.80
2018-09-26T08:38:47.889Z,20.30
2018-09-26T10:44:37.930Z,1.00
2018-09-26T10:46:40.116Z,1.00
2018-09-26T10:48:42.177Z,1.00
2018-09-26T10:50:44.283Z,1.00
2018-09-26T10:52:46.367Z,1.00
2018-09-26T10:54:48.526Z,1.00
2018-09-26T10:56:50.623Z,1.00
2018-09-26T10:58:52.775Z,1.00
2018-09-26T11:00:54.905Z,1.00
2018-09-26T11:02:57.069Z,1.00
2018-09-26T11:04:59.925Z,1.00
2018-09-26T11:07:02.009Z,1.00
2018-09-26T11:09:09.407Z,1.00
2018-09-26T11:11:11.498Z,1.00
2018-09-26T11:13:13.629Z,1.00
2018-09-26T11:15:15.864Z,1.00
2018-09-26T11:17:17.977Z,1.00
2018-09-26T11:19:20.129Z,1.00
2018-09-26T11:21:22.284Z,1.00
2018-09-26T11:23:24.361Z,1.00
2018-09-26T11:25:26.530Z,1.00
2018-09-26T11:27:28.656Z,1.00
2018-09-26T11:29:30.941Z,1.00
2018-09-26T11:31:33.229Z,1.00
2018-09-26T11:33:35.478Z,1.00
2018-09-26T11:35:37.531Z,1.00
2018-09-26T11:37:39.622Z,1.00
2018-09-26T11:39:41.778Z,1.00
2018-09-26T11:41:43.933Z,1.00
2018-09-26T11:43:49.142Z,1.00
2018-09-26T11:45:51.333Z,1.00
2018-09-26T11:47:53.480Z,1.00
2018-09-26T11:49:55.657Z,1.00
2018-09-26T11:51:57.801Z,1.00
2018-09-26T11:54:00.002Z,1.00
2018-09-26T11:56:02.288Z,1.00
2018-09-26T11:58:04.466Z,1.00
2018-09-26T12:00:06.695Z,1.00
2018-09-26T12:02:08.901Z,1.00
2018-09-26T12:04:11.126Z,1.00
2018-09-26T12:06:13.499Z,1.00
2018-09-26T12:08:15.595Z,1.00
2018-09-26T12:10:17.749Z,1.00
2018-09-26T12:12:19.904Z,1.00
2018-09-26T12:14:22.057Z,1.00
2018-09-26T12:16:24.258Z,1.00
2018-09-26T12:18:26.395Z,1.00
2018-09-26T12:20:28.514Z,1.00
2018-09-26T12:22:30.734Z,1.00
2018-09-26T12:24:32.854Z,1.00
2018-09-26T12:26:35.039Z,1.00
2018-09-26T12:28:37.209Z,1.00
2018-09-26T12:30:40.380Z,1.00
2018-09-26T12:32:42.485Z,1.00
2018-09-26T12:34:44.669Z,1.00
2018-09-26T12:36:46.857Z,1.00
2018-09-26T12:38:49.006Z,1.00
2018-09-26T12:40:51.177Z,1.00
2018-09-26T12:42:53.380Z,1.00
2018-09-26T12:44:55.398Z,1.00
2018-09-26T12:46:57.508Z,1.00
2018-09-26T12:48:59.698Z,1.00
2018-09-26T12:51:01.902Z,1.00
2018-09-26T12:53:04.029Z,1.00
2018-09-26T12:55:06.362Z,1.00
2018-09-26T12:57:08.566Z,1.00
2018-09-26T12:59:10.662Z,1.00
2018-09-26T13:01:13.389Z,1.00
2018-09-26T13:03:16.397Z,1.00
2018-09-26T13:05:19.342Z,1.00
2018-09-26T13:07:22.149Z,1.00
2018-09-26T13:09:24.333Z,1.00
2018-09-26T13:11:26.450Z,1.00
2018-09-26T13:13:28.610Z,1.00
2018-09-26T13:15:30.773Z,1.00
2018-09-26T13:17:32.938Z,1.00
2018-09-26T13:19:35.057Z,1.00
2018-09-26T13:21:37.514Z,1.00
2018-09-26T13:23:39.750Z,1.00
2018-09-26T13:25:41.916Z,1.00
2018-09-26T13:27:44.145Z,1.00
2018-09-26T13:29:46.321Z,1.00
2018-09-26T13:31:48.499Z,1.00
2018-09-26T13:33:50.621Z,1.00
2018-09-26T13:35:52.773Z,1.00
2018-09-26T13:37:55.047Z,1.00
2018-09-26T13:39:57.162Z,1.00
2018-09-26T13:41:59.266Z,1.00
2018-09-26T13:44:01.400Z,1.00
2018-09-26T13:46:03.594Z,1.00
2018-09-26T13:48:05.854Z,1.00
2018-09-26T13:50:07.954Z,1.00
2018-09-26T13:52:10.081Z,1.00
2018-09-26T13:54:12.325Z,1.00
2018-09-26T13:56:14.848Z,1.00
2018-09-26T13:58:17.209Z,1.00
2018-09-26T14:00:19.317Z,1.00
2018-09-26T14:02:21.463Z,1.00
2018-09-26T14:04:23.624Z,1.00
2018-09-26T14:06:25.694Z,1.00
2018-09-26T14:08:27.820Z,1.00
2018-09-26T14:10:30.020Z,1.00
2018-09-26T14:12:32.140Z,1.00
2018-09-26T14:14:34.229Z,1.00
2018-09-26T14:16:36.382Z,1.00
2018-09-26T14:18:38.527Z,1.00
2018-09-26T14:20:58.044Z,1.00
2018-09-26T14:23:00.425Z,1.00
2018-09-26T14:25:02.813Z,1.00
2018-09-26T14:27:05.298Z,1.00
2018-09-26T14:29:07.797Z,1.00
2018-09-26T14:31:10.266Z,1.00
2018-09-26T14:33:12.698Z,1.00
2018-09-26T14:35:15.049Z,1.00
2018-09-26T14:37:17.430Z,1.00
2018-09-26T14:39:21.742Z,1.00
2018-09-26T14:41:24.028Z,1.00
2018-09-26T14:43:26.320Z,1.00
2018-09-26T14:45:28.631Z,1.00
2018-09-26T14:47:30.976Z,1.00
2018-09-26T14:49:33.324Z,1.00
2018-09-26T14:51:35.729Z,1.00
2018-09-26T14:53:38.093Z,1.00
2018-09-26T14:55:41.222Z,1.00
2018-09-26T14:57:44.283Z,1.00
2018-09-26T14:59:46.626Z,1.00
2018-09-26T15:01:49.019Z,1.00
2018-09-26T15:03:51.425Z,1.00
2018-09-26T15:05:53.838Z,1.00
2018-09-26T15:07:56.193Z,1.00
2018-09-26T15:09:58.554Z,1.00
2018-09-26T15:12:00.986Z,1.00
2018-09-26T15:14:03.221Z,1.00
2018-09-26T15:16:05.960Z,1.00
2018-09-26T15:18:08.362Z,1.00
2018-09-26T15:20:10.696Z,1.00
2018-09-26T15:22:12.999Z,1.00
2018-09-26T15:24:15.297Z,1.00
2018-09-26T15:26:20.423Z,1.00
2018-09-26T15:28:25.109Z,1.00
2018-09-26T15:30:31.521Z,1.00
2018-09-26T15:32:36.526Z,1.00
2018-09-26T15:34:39.090Z,1.00
2018-09-26T15:36:41.475Z,1.00
2018-09-26T15:38:43.813Z,1.00
2018-09-26T15:40:46.140Z,1.00
2018-09-26T15:42:55.140Z,1.00
2018-09-26T15:44:57.480Z,1.00
2018-09-26T15:46:59.816Z,1.00
2018-09-26T15:49:02.312Z,1.00
2018-09-26T15:51:04.633Z,1.00
2018-09-26T15:53:07.084Z,1.00
2018-09-26T15:55:09.553Z,1.00
2018-09-26T15:57:11.888Z,1.00
2018-09-26T15:59:14.309Z,1.00
2018-09-26T16:01:16.623Z,1.00
2018-09-26T16:03:18.832Z,1.00
2018-09-26T16:05:20.950Z,1.00
2018-09-26T16:07:23.094Z,1.00
2018-09-26T16:09:25.188Z,1.00
2018-09-26T16:11:27.333Z,1.00
2018-09-26T16:13:29.460Z,1.00
2018-09-26T16:15:31.566Z,1.00
2018-09-26T16:17:33.650Z,1.00
2018-09-26T16:19:35.814Z,1.00
2018-09-26T16:21:37.989Z,1.00
2018-09-26T16:23:40.064Z,1.00
2018-09-26T16:25:42.221Z,1.00
2018-09-26T16:27:44.291Z,1.00
2018-09-26T16:29:46.394Z,1.00
2018-09-26T16:31:51.748Z,1.00
2018-09-26T16:33:54.366Z,1.00
2018-09-26T16:35:56.468Z,1.00
2018-09-26T16:37:58.627Z,1.00
2018-09-26T16:40:00.657Z,1.00
2018-09-26T16:42:02.786Z,1.00
2018-09-26T16:44:08.910Z,1.00
2018-09-26T16:46:14.302Z,1.00
2018-09-26T16:48:16.411Z,1.00
2018-09-26T16:50:18.461Z,1.00
2018-09-26T16:52:20.545Z,1.00
2018-09-26T16:54:22.709Z,1.00
2018-09-26T16:56:25.817Z,1.00
2018-09-26T16:58:27.932Z,2.40
2018-09-26T17:00:30.086Z,1.00
2018-09-26T17:02:32.179Z,1.00
2018-09-26T17:04:34.285Z,1.00
2018-09-26T17:06:36.370Z,1.00
2018-09-26T17:08:38.457Z,1.00
2018-09-26T17:10:40.550Z,1.00
2018-09-26T17:12:43.030Z,1.00
2018-09-26T17:14:45.130Z,1.00
2018-09-26T17:16:47.212Z,1.00
2018-09-26T17:18:49.662Z,2.10
2018-09-26T17:20:51.965Z,2.60
2018-09-26T17:22:54.225Z,3.30
2018-09-26T17:24:56.448Z,3.90
2018-09-26T17:26:58.646Z,3.60
2018-09-26T17:29:03.981Z,4.90
2018-09-26T17:31:06.269Z,6.40
2018-09-26T17:33:08.470Z,7.10
2018-09-26T17:35:10.669Z,6.10
2018-09-26T17:37:12.904Z,8.70
2018-09-26T17:39:15.259Z,8.60
2018-09-26T17:41:17.425Z,8.80
2018-09-26T17:43:19.728Z,9.50
2018-09-26T17:45:21.836Z,9.50
2018-09-26T17:47:23.992Z,10.90
2018-09-26T17:49:26.246Z,9.80
2018-09-26T17:51:28.390Z,10.20
2018-09-26T17:53:30.659Z,9.90
2018-09-26T17:55:32.729Z,10.30
2018-09-26T17:57:34.837Z,10.90
2018-09-26T17:59:37.046Z,10.10
2018-09-26T18:01:39.211Z,10.20
2018-09-26T18:03:41.329Z,9.50
2018-09-26T18:05:43.486Z,9.60
2018-09-26T18:07:46.392Z,9.00
2018-09-26T18:09:48.582Z,9.40
2018-09-26T18:11:50.695Z,9.20
2018-09-26T18:13:52.833Z,10.50
2018-09-26T18:15:54.930Z,10.80
2018-09-26T18:17:57.053Z,11.60
2018-09-26T18:19:59.147Z,10.10
2018-09-26T18:22:01.272Z,10.90
2018-09-26T18:24:05.404Z,12.90
2018-09-26T18:26:07.767Z,13.70
2018-09-26T18:28:09.882Z,12.50
2018-09-26T18:30:11.985Z,10.00
2018-09-26T18:32:15.872Z,7.40
2018-09-26T18:34:18.012Z,8.70
2018-09-26T18:36:20.766Z,7.50
2018-09-26T18:38:23.477Z,5.10
2018-09-26T18:40:25.580Z,6.70
2018-09-26T18:42:27.718Z,6.40
2018-09-26T18:44:29.881Z,6.50
2018-09-26T18:46:32.020Z,6.40
2018-09-26T18:48:34.858Z,7.00
2018-09-26T18:50:37.141Z,4.10
2018-09-26T18:52:39.325Z,5.90
2018-09-26T18:54:41.425Z,5.50
2018-09-26T18:56:43.557Z,4.40
2018-09-26T18:58:45.770Z,4.00
2018-09-26T19:00:49.066Z,4.00
2018-09-26T19:02:51.253Z,3.80
2018-09-26T19:04:53.490Z,4.60
2018-09-26T19:06:55.453Z,4.60
2018-09-26T19:08:57.528Z,4.90
2018-09-26T19:10:59.602Z,4.20
2018-09-26T19:13:17.957Z,6.20
2018-09-26T19:15:20.948Z,5.00
2018-09-26T19:17:23.209Z,6.20
2018-09-26T19:19:26.057Z,4.10
2018-09-26T19:21:28.370Z,5.40
2018-09-26T19:23:30.501Z,6.20
2018-09-26T19:25:32.682Z,7.50
2018-09-26T19:27:34.953Z,6.20
2018-09-26T19:29:37.034Z,3.20
2018-09-26T19:31:39.190Z,7.50
2018-09-26T19:33:41.800Z,6.70
2018-09-26T19:35:43.905Z,5.40
2018-09-26T19:37:45.980Z,5.10
2018-09-26T19:39:48.090Z,7.60
2018-09-26T19:41:51.575Z,6.80
2018-09-26T19:43:54.442Z,8.00
2018-09-26T19:45:56.581Z,8.30
2018-09-26T19:47:58.745Z,8.20
2018-09-26T19:50:00.929Z,9.30
2018-09-26T19:52:03.124Z,9.70
2018-09-26T19:54:05.293Z,8.70
2018-09-26T19:56:07.529Z,9.60
2018-09-26T19:58:09.709Z,10.30
2018-09-26T20:00:11.918Z,9.50
2018-09-26T20:02:14.056Z,9.40
2018-09-26T20:04:16.228Z,8.10
2018-09-26T20:06:18.580Z,9.90
2018-09-26T20:08:20.758Z,9.20
2018-09-26T20:10:22.960Z,10.60
2018-09-26T20:12:25.169Z,11.00
2018-09-26T20:14:27.398Z,9.60
2018-09-26T20:16:29.594Z,9.50
2018-09-26T20:18:31.778Z,8.50
2018-09-26T20:20:33.894Z,7.60
2018-09-26T20:22:36.117Z,7.60
2018-09-26T20:24:38.805Z,8.10
2018-09-26T20:26:41.068Z,8.10
2018-09-26T20:28:43.234Z,8.10
2018-09-26T20:30:45.313Z,8.10
2018-09-26T20:32:47.409Z,7.60
2018-09-26T20:34:49.568Z,7.60
2018-09-26T20:36:51.704Z,7.80
2018-09-26T20:38:53.757Z,7.10
2018-09-26T20:40:56.034Z,7.20
2018-09-26T20:42:58.193Z,8.10
2018-09-26T20:45:00.604Z,7.10
2018-09-26T20:47:02.733Z,7.80
2018-09-26T20:49:04.909Z,8.10
2018-09-26T20:51:07.129Z,7.10
2018-09-26T20:53:09.305Z,8.00
2018-09-26T20:55:11.542Z,6.40
2018-09-26T20:57:13.739Z,7.20
2018-09-26T20:59:15.954Z,7.40
2018-09-26T21:01:18.110Z,8.10
2018-09-26T21:03:20.288Z,7.70
2018-09-26T21:05:22.423Z,6.50
2018-09-26T21:07:24.672Z,6.00
2018-09-26T21:09:26.808Z,7.50
2018-09-26T21:11:28.965Z,7.50
2018-09-26T21:13:31.134Z,6.40
2018-09-26T21:15:33.338Z,7.30
2018-09-26T21:17:35.574Z,6.90
2018-09-26T21:19:37.660Z,8.30
2018-09-26T21:21:39.850Z,6.90
2018-09-26T21:23:41.992Z,7.60
2018-09-26T21:25:44.215Z,7.20
2018-09-26T21:27:46.410Z,7.00
2018-09-26T21:29:48.621Z,6.90
2018-09-26T21:31:50.803Z,7.40
2018-09-26T21:33:52.971Z,8.30
2018-09-26T21:35:55.137Z,9.50
2018-09-26T21:37:57.303Z,7.40
2018-09-26T21:39:59.462Z,7.50
2018-09-26T21:42:01.720Z,7.60
2018-09-26T21:44:03.986Z,7.40
2018-09-26T21:46:06.130Z,8.10
2018-09-26T21:48:08.235Z,8.40
2018-09-26T21:50:10.521Z,8.30
2018-09-26T21:52:12.553Z,7.90
2018-09-26T21:54:14.708Z,8.60
2018-09-26T21:56:16.895Z,9.10
2018-09-26T21:58:19.098Z,8.10
2018-09-26T22:00:21.302Z,8.70
2018-09-26T22:02:23.467Z,9.00
2018-09-26T22:04:25.592Z,8.20
2018-09-26T22:06:27.753Z,8.20
2018-09-26T22:08:29.918Z,10.70
2018-09-26T22:10:32.146Z,9.80
2018-09-26T22:12:34.314Z,9.50
2018-09-26T22:14:36.453Z,9.20
2018-09-26T22:16:38.622Z,9.60
2018-09-26T22:18:40.761Z,8.20
2018-09-26T22:20:42.953Z,8.90
2018-09-26T22:22:45.125Z,9.10
2018-09-26T22:24:47.256Z,10.40
2018-09-26T22:26:49.500Z,10.30
2018-09-26T22:28:51.648Z,10.50
2018-09-26T22:30:53.810Z,11.40
2018-09-26T22:32:56.041Z,10.80
2018-09-26T22:34:58.307Z,10.60
2018-09-26T22:37:00.578Z,10.30
2018-09-26T22:39:03.173Z,10.20
2018-09-26T22:41:05.340Z,11.00
2018-09-26T22:43:07.497Z,10.90
2018-09-26T22:45:09.621Z,10.60
2018-09-26T22:47:11.740Z,11.40
2018-09-26T22:49:13.909Z,11.90
2018-09-26T22:51:16.102Z,10.50
2018-09-26T22:53:18.249Z,10.90
2018-09-26T22:55:20.390Z,11.10
2018-09-26T22:57:22.607Z,11.10
2018-09-26T22:59:24.753Z,12.00
2018-09-26T23:01:26.904Z,11.70
2018-09-26T23:03:29.057Z,11.80
2018-09-26T23:05:31.470Z,11.60
2018-09-26T23:07:33.737Z,10.50
2018-09-26T23:09:35.890Z,10.20
2018-09-26T23:11:38.046Z,11.40
2018-09-26T23:13:40.182Z,11.40
2018-09-26T23:15:42.342Z,12.20
2018-09-26T23:17:44.458Z,11.50
2018-09-26T23:19:46.700Z,11.60
2018-09-26T23:21:49.012Z,12.30
2018-09-26T23:23:51.140Z,12.50
2018-09-26T23:25:53.270Z,12.60
2018-09-26T23:27:55.413Z,12.30
2018-09-26T23:29:57.573Z,12.90
2018-09-26T23:31:59.780Z,12.80
2018-09-26T23:34:01.980Z,12.60
2018-09-26T23:36:04.126Z,11.70
2018-09-26T23:38:06.296Z,13.50
2018-09-26T23:40:08.430Z,13.40
2018-09-26T23:42:10.562Z,12.60
2018-09-26T23:44:12.738Z,12.30
2018-09-26T23:46:14.893Z,11.50
2018-09-26T23:48:17.009Z,12.40
2018-09-26T23:50:19.199Z,13.20
2018-09-26T23:52:21.323Z,12.40
2018-09-26T23:54:23.472Z,12.30
2018-09-26T23:56:25.610Z,12.00
2018-09-26T23:58:27.741Z,13.50
